National Weather Service Raw Text Product

Displaying AFOS PIL: TAFOTM Received: 2017-11-15 03:27 UTC


544 
FTUS43 KDMX 150327 AAB
TAFOTM
TAF AMD
KOTM 150327Z 1503/1524 18012KT 4SM -DZ BR OVC003
     FM150800 19008KT 4SM BR VCSH OVC006
     FM151100 26010KT P6SM OVC005
     FM151600 31016G24KT P6SM SKC=